createdAt,value
2018-02-12T00:00:24.370Z,5.10
2018-02-12T00:02:52.641Z,4.90
2018-02-12T00:05:20.895Z,5.00
2018-02-12T00:07:49.910Z,4.90
2018-02-12T00:10:18.174Z,4.90
2018-02-12T00:12:45.667Z,4.90
2018-02-12T00:15:13.150Z,4.90
2018-02-12T00:17:40.649Z,4.90
2018-02-12T00:20:08.133Z,4.90
2018-02-12T00:22:35.638Z,4.80
2018-02-12T00:25:03.249Z,4.80
2018-02-12T00:27:31.507Z,4.80
2018-02-12T00:29:59.770Z,4.80
2018-02-12T00:32:28.163Z,4.80
2018-02-12T00:34:56.435Z,4.80
2018-02-12T00:37:24.714Z,4.80
2018-02-12T00:39:52.966Z,4.90
2018-02-12T00:42:20.458Z,4.90
2018-02-12T00:44:48.930Z,4.80
2018-02-12T00:47:17.194Z,4.90
2018-02-12T00:49:45.455Z,4.90
2018-02-12T00:52:12.959Z,4.90
2018-02-12T00:54:40.463Z,4.90
2018-02-12T00:57:07.978Z,4.90
2018-02-12T00:59:35.469Z,4.90
2018-02-12T01:02:02.967Z,4.80
2018-02-12T01:04:30.454Z,4.80
2018-02-12T01:06:57.954Z,4.80
2018-02-12T01:09:25.448Z,4.80
2018-02-12T01:11:53.730Z,4.70
2018-02-12T01:14:21.990Z,4.70
2018-02-12T01:16:49.498Z,4.70
2018-02-12T01:19:17.044Z,4.70
2018-02-12T01:21:44.542Z,4.70
2018-02-12T01:24:12.034Z,4.60
2018-02-12T01:26:40.410Z,4.70
2018-02-12T01:29:08.678Z,4.70
2018-02-12T01:31:36.172Z,4.70
2018-02-12T01:34:03.661Z,4.70
2018-02-12T01:36:31.154Z,4.70
2018-02-12T01:38:58.646Z,4.70
2018-02-12T01:41:26.138Z,4.70
2018-02-12T01:43:53.642Z,4.70
2018-02-12T01:46:22.121Z,4.70
2018-02-12T01:48:50.390Z,4.70
2018-02-12T01:51:18.650Z,4.60
2018-02-12T01:53:46.159Z,4.60
2018-02-12T01:56:13.655Z,4.60
2018-02-12T01:58:41.142Z,4.70
2018-02-12T02:01:09.410Z,4.60
2018-02-12T02:03:36.913Z,4.60
2018-02-12T02:06:04.406Z,4.60
2018-02-12T02:08:31.905Z,4.60
2018-02-12T02:10:59.562Z,4.60
2018-02-12T02:13:27.817Z,4.60
2018-02-12T02:15:55.311Z,4.60
2018-02-12T02:18:22.810Z,4.60
2018-02-12T02:20:50.310Z,4.60
2018-02-12T02:23:18.786Z,4.60
2018-02-12T02:25:47.269Z,4.60
2018-02-12T02:28:15.528Z,4.60
2018-02-12T02:30:43.210Z,4.60
2018-02-12T02:33:11.466Z,4.70
2018-02-12T02:35:39.722Z,4.70
2018-02-12T02:38:07.224Z,4.70
2018-02-12T02:40:35.492Z,4.70
2018-02-12T02:43:03.871Z,4.60
2018-02-12T02:45:32.126Z,4.60
2018-02-12T02:48:00.398Z,4.60
2018-02-12T02:50:28.823Z,4.70
2018-02-12T02:52:56.324Z,4.60
2018-02-12T02:55:23.815Z,4.60
2018-02-12T02:57:52.202Z,4.70
2018-02-12T03:00:20.478Z,4.70
2018-02-12T03:02:48.743Z,4.70
2018-02-12T03:05:16.422Z,4.70
2018-02-12T03:07:44.681Z,4.70
2018-02-12T03:10:12.178Z,4.70
2018-02-12T03:12:39.683Z,4.70
2018-02-12T03:15:07.182Z,4.70
2018-02-12T03:17:34.671Z,4.60
2018-02-12T03:20:02.167Z,4.60
2018-02-12T03:22:29.673Z,4.60
2018-02-12T03:24:57.170Z,4.60
2018-02-12T03:27:24.674Z,4.60
2018-02-12T03:29:52.170Z,4.60
2018-02-12T03:32:19.662Z,4.60
2018-02-12T03:34:47.169Z,4.50
2018-02-12T03:37:14.790Z,4.60
2018-02-12T03:39:43.054Z,4.60
2018-02-12T03:42:10.548Z,4.60
2018-02-12T03:44:38.054Z,4.60
2018-02-12T03:47:05.551Z,4.60
2018-02-12T03:49:33.811Z,4.60
2018-02-12T03:52:02.190Z,4.60
2018-02-12T03:54:30.686Z,4.60
2018-02-12T03:56:58.961Z,4.70
2018-02-12T03:59:27.246Z,4.80
2018-02-12T04:01:54.744Z,4.70
2018-02-12T04:04:22.230Z,4.70
2018-02-12T04:06:49.746Z,4.70
2018-02-12T04:09:17.237Z,4.60
2018-02-12T04:11:44.730Z,4.70
2018-02-12T04:14:12.986Z,4.60
2018-02-12T04:16:40.666Z,4.60
2018-02-12T04:19:08.925Z,4.60
2018-02-12T04:21:36.416Z,4.50
2018-02-12T04:24:03.913Z,4.50
2018-02-12T04:26:32.190Z,4.60
2018-02-12T04:28:59.709Z,4.60
2018-02-12T04:31:27.259Z,4.60
2018-02-12T04:33:54.708Z,4.60
2018-02-12T04:36:22.978Z,4.70
2018-02-12T04:38:51.238Z,4.70
2018-02-12T04:41:20.242Z,4.60
2018-02-12T04:43:48.507Z,4.70
2018-02-12T04:46:16.191Z,4.60
2018-02-12T04:48:44.663Z,4.70
2018-02-12T04:51:12.930Z,4.70
2018-02-12T04:53:41.322Z,4.80
2018-02-12T04:56:09.590Z,4.80
2018-02-12T04:58:37.851Z,4.80
2018-02-12T05:01:05.359Z,4.70
2018-02-12T05:03:32.859Z,4.70
2018-02-12T05:06:00.369Z,4.70
2018-02-12T05:08:28.283Z,4.70
2018-02-12T05:10:55.976Z,4.60
2018-02-12T05:13:24.235Z,4.70
2018-02-12T05:15:51.845Z,4.70
2018-02-12T05:18:19.342Z,4.70
2018-02-12T05:20:46.845Z,4.70
2018-02-12T05:23:14.355Z,4.70
2018-02-12T05:25:41.846Z,4.70
2018-02-12T05:28:10.114Z,4.70
2018-02-12T05:30:37.618Z,4.70
2018-02-12T05:33:05.117Z,4.70
2018-02-12T05:35:32.811Z,4.60
2018-02-12T05:38:01.083Z,4.60
2018-02-12T05:40:29.347Z,4.60
2018-02-12T05:42:56.850Z,4.60
2018-02-12T05:45:24.362Z,4.60
2018-02-12T05:47:51.851Z,4.60
2018-02-12T05:50:19.359Z,4.70
2018-02-12T05:52:46.858Z,4.60
2018-02-12T05:55:15.115Z,4.60
2018-02-12T05:57:43.374Z,4.60
2018-02-12T06:00:10.875Z,4.60
2018-02-12T06:02:38.375Z,4.60
2018-02-12T06:05:06.090Z,4.60
2018-02-12T06:07:33.590Z,4.60
2018-02-12T06:10:01.080Z,4.60
2018-02-12T06:12:28.579Z,4.70
2018-02-12T06:14:56.075Z,4.60
2018-02-12T06:17:23.570Z,4.70
2018-02-12T06:19:51.823Z,4.70
2018-02-12T06:22:19.506Z,4.70
2018-02-12T06:24:47.027Z,4.70
2018-02-12T06:27:14.730Z,4.70
2018-02-12T06:29:42.995Z,4.60
2018-02-12T06:32:11.255Z,4.70
2018-02-12T06:34:38.871Z,4.60
2018-02-12T06:37:06.378Z,4.70
2018-02-12T06:39:33.870Z,4.70
2018-02-12T06:42:01.362Z,4.60
2018-02-12T06:44:28.857Z,4.60
2018-02-12T06:46:56.366Z,4.70
2018-02-12T06:49:23.874Z,4.70
2018-02-12T06:51:51.375Z,4.80
2018-02-12T06:54:18.871Z,4.80
2018-02-12T06:56:46.362Z,4.80
2018-02-12T06:59:14.627Z,4.90
2018-02-12T07:01:42.126Z,4.80
2018-02-12T07:04:09.625Z,4.90
2018-02-12T07:06:37.328Z,4.90
2018-02-12T07:09:05.587Z,5.00
2018-02-12T07:11:33.847Z,5.00
2018-02-12T07:14:01.572Z,5.00
2018-02-12T07:16:29.082Z,5.00
2018-02-12T07:18:56.577Z,5.00
2018-02-12T07:21:24.070Z,5.00
2018-02-12T07:23:51.566Z,5.00
2018-02-12T07:26:19.827Z,4.90
2018-02-12T07:28:47.333Z,4.90
2018-02-12T07:31:14.824Z,4.90
2018-02-12T07:33:42.317Z,4.90
2018-02-12T07:36:10.571Z,4.90
2018-02-12T07:38:38.067Z,4.80
2018-02-12T07:41:05.559Z,4.80
2018-02-12T07:43:33.165Z,4.80
2018-02-12T07:46:01.430Z,4.90
2018-02-12T07:48:28.928Z,4.90
2018-02-12T07:50:56.439Z,4.90
2018-02-12T07:53:23.942Z,5.00
2018-02-12T07:55:51.435Z,4.90
2018-02-12T07:58:19.043Z,4.90
2018-02-12T08:00:47.302Z,4.90
2018-02-12T08:03:14.806Z,4.80
2018-02-12T08:05:42.299Z,4.90
2018-02-12T08:08:11.310Z,4.90
2018-02-12T08:10:38.991Z,4.90
2018-02-12T08:13:07.263Z,4.90
2018-02-12T08:15:35.522Z,4.90
2018-02-12T08:18:03.014Z,4.90
2018-02-12T08:20:30.515Z,5.00
2018-02-12T08:22:58.019Z,5.00
2018-02-12T08:25:26.279Z,5.10
2018-02-12T08:27:54.542Z,5.20
2018-02-12T08:30:32.519Z,5.10
2018-02-12T08:33:00.020Z,5.10
2018-02-12T08:35:28.292Z,5.10
2018-02-12T08:37:56.658Z,5.20
2018-02-12T08:40:24.176Z,5.20
2018-02-12T08:42:51.674Z,5.10
2018-02-12T08:45:19.174Z,5.20
2018-02-12T08:47:46.819Z,5.30
2018-02-12T08:50:15.075Z,5.30
2018-02-12T08:52:42.559Z,5.30
2018-02-12T08:55:10.814Z,5.40
2018-02-12T08:57:38.309Z,5.40
2018-02-12T09:00:05.814Z,5.40
2018-02-12T09:02:33.502Z,5.30
2018-02-12T09:05:01.759Z,5.40
2018-02-12T09:07:29.266Z,5.40
2018-02-12T09:09:56.763Z,5.40
2018-02-12T09:12:24.262Z,5.50
2018-02-12T09:14:52.536Z,5.40
2018-02-12T09:17:20.807Z,5.50
2018-02-12T09:19:49.063Z,5.50
2018-02-12T09:22:16.562Z,5.40
2018-02-12T09:24:44.066Z,5.50
2018-02-12T09:27:11.558Z,5.60
2018-02-12T09:29:39.835Z,5.60
2018-02-12T09:32:08.113Z,5.70
2018-02-12T09:34:36.375Z,5.70
2018-02-12T09:37:03.875Z,5.70
2018-02-12T09:39:31.399Z,5.70
2018-02-12T09:41:59.663Z,5.60
2018-02-12T09:44:27.151Z,5.60
2018-02-12T09:46:54.662Z,5.60
2018-02-12T09:49:22.157Z,5.70
2018-02-12T09:51:50.414Z,5.70
2018-02-12T09:54:17.910Z,5.70
2018-02-12T09:56:45.406Z,5.60
2018-02-12T09:59:12.909Z,5.70
2018-02-12T10:01:41.191Z,5.70
2018-02-12T10:04:09.445Z,5.60
2018-02-12T10:06:36.934Z,5.60
2018-02-12T10:09:04.431Z,5.60
2018-02-12T10:11:31.919Z,5.60
2018-02-12T10:13:59.426Z,5.70
2018-02-12T10:16:26.971Z,5.70
2018-02-12T10:18:54.466Z,5.70
2018-02-12T10:21:21.970Z,5.70
2018-02-12T10:23:50.230Z,5.60
2018-02-12T10:26:17.731Z,5.60
2018-02-12T10:28:45.358Z,5.50
2018-02-12T10:31:13.627Z,5.70
2018-02-12T10:33:41.121Z,5.70
2018-02-12T10:36:08.750Z,5.70
2018-02-12T10:38:37.012Z,5.80
2018-02-12T10:41:04.502Z,5.80
2018-02-12T10:43:32.003Z,5.80
2018-02-12T10:45:59.510Z,5.90
2018-02-12T10:48:27.817Z,5.90
2018-02-12T10:50:55.311Z,5.90
2018-02-12T10:53:22.797Z,5.80
2018-02-12T10:55:51.058Z,5.80
2018-02-12T10:58:18.563Z,5.80
2018-02-12T11:00:46.059Z,5.90
2018-02-12T11:03:13.550Z,5.90
2018-02-12T11:05:41.810Z,5.90
2018-02-12T11:08:09.318Z,5.90
2018-02-12T11:10:36.818Z,6.00
2018-02-12T11:13:04.428Z,6.00
2018-02-12T11:15:31.924Z,6.00
2018-02-12T11:17:59.415Z,6.00
2018-02-12T11:20:27.679Z,5.90
2018-02-12T11:22:55.175Z,5.90
2018-02-12T11:25:22.679Z,6.00
2018-02-12T11:27:50.179Z,6.00
2018-02-12T11:30:17.687Z,6.20
2018-02-12T11:32:45.192Z,6.40
2018-02-12T11:35:13.457Z,6.40
2018-02-12T11:37:41.712Z,6.40
2018-02-12T11:40:09.327Z,6.40
2018-02-12T11:42:36.870Z,6.40
2018-02-12T11:45:04.371Z,6.30
2018-02-12T11:47:31.867Z,6.30
2018-02-12T11:50:00.122Z,6.20
2018-02-12T11:52:27.810Z,6.30
2018-02-12T11:54:56.066Z,6.20
2018-02-12T11:57:23.562Z,6.10
2018-02-12T11:59:51.058Z,6.20
2018-02-12T12:02:18.551Z,6.30
2018-02-12T12:04:46.222Z,6.30
2018-02-12T12:07:14.482Z,6.50
2018-02-12T12:09:42.002Z,6.50
2018-02-12T12:12:09.512Z,6.60
2018-02-12T12:14:37.768Z,6.60
2018-02-12T12:17:05.280Z,6.60
2018-02-12T12:19:32.790Z,6.60
2018-02-12T12:22:00.298Z,6.70
2018-02-12T12:24:27.802Z,6.80
2018-02-12T12:26:55.295Z,6.80
2018-02-12T12:29:23.550Z,6.90
2018-02-12T12:31:51.814Z,7.00
2018-02-12T12:34:19.494Z,7.00
2018-02-12T12:36:47.758Z,7.00
2018-02-12T12:39:16.015Z,7.00
2018-02-12T12:41:43.526Z,6.90
2018-02-12T12:44:11.026Z,6.90
2018-02-12T12:46:38.527Z,6.90
2018-02-12T12:49:06.899Z,7.10
2018-02-12T12:51:35.150Z,7.00
2018-02-12T12:54:02.648Z,7.00
2018-02-12T12:56:30.302Z,7.00
2018-02-12T12:58:58.581Z,7.20
2018-02-12T13:01:26.845Z,7.20
2018-02-12T13:03:55.111Z,7.10
2018-02-12T13:06:22.623Z,7.10
2018-02-12T13:08:50.142Z,7.10
2018-02-12T13:11:18.403Z,7.20
2018-02-12T13:13:45.905Z,7.10
2018-02-12T13:16:13.413Z,7.20
2018-02-12T13:18:40.899Z,7.20
2018-02-12T13:21:09.783Z,7.30
2018-02-12T13:23:38.040Z,7.30
2018-02-12T13:26:05.536Z,7.30
2018-02-12T13:28:33.026Z,7.30
2018-02-12T13:31:00.546Z,7.20
2018-02-12T13:33:28.049Z,7.20
2018-02-12T13:35:55.556Z,7.10
2018-02-12T13:38:23.819Z,7.00
2018-02-12T13:40:51.327Z,7.00
2018-02-12T13:43:18.830Z,7.00
2018-02-12T13:45:46.331Z,6.90
2018-02-12T13:48:13.831Z,6.80
2018-02-12T13:50:41.522Z,6.90
2018-02-12T13:53:09.786Z,7.00
2018-02-12T13:55:37.274Z,7.00
2018-02-12T13:58:04.770Z,7.00
2018-02-12T14:00:32.386Z,7.00
2018-02-12T14:03:00.655Z,6.90
2018-02-12T14:05:28.915Z,7.00
2018-02-12T14:07:56.409Z,6.90
2018-02-12T14:10:23.899Z,6.90
2018-02-12T14:12:51.411Z,6.90
2018-02-12T14:15:19.671Z,6.80
2018-02-12T14:17:47.935Z,6.70
2018-02-12T14:20:16.951Z,6.70
2018-02-12T14:22:45.214Z,6.80
2018-02-12T14:25:13.486Z,6.50
2018-02-12T14:27:40.986Z,6.40
2018-02-12T14:30:08.493Z,6.30
2018-02-12T14:32:36.915Z,6.10
2018-02-12T14:35:04.406Z,6.00
2018-02-12T14:37:32.020Z,5.70
2018-02-12T14:40:00.276Z,5.30
2018-02-12T14:42:27.758Z,5.30
2018-02-12T14:44:56.036Z,5.20
2018-02-12T14:47:23.539Z,5.10
2018-02-12T14:49:51.027Z,4.90
2018-02-12T14:52:18.518Z,4.80
2018-02-12T14:54:46.015Z,4.60
2018-02-12T14:57:13.500Z,4.70
2018-02-12T14:59:41.007Z,4.70
2018-02-12T15:02:09.285Z,4.40
2018-02-12T15:04:36.774Z,4.40
2018-02-12T15:07:04.283Z,4.40
2018-02-12T15:09:31.782Z,4.30
2018-02-12T15:11:59.270Z,4.00
2018-02-12T15:14:26.753Z,3.80
2018-02-12T15:16:54.250Z,3.60
2018-02-12T15:19:21.754Z,3.50
2018-02-12T15:21:50.012Z,3.40
2018-02-12T15:24:17.510Z,3.40
2018-02-12T15:26:45.146Z,3.30
2018-02-12T15:29:13.417Z,3.10
2018-02-12T15:31:41.130Z,3.00
2018-02-12T15:34:08.613Z,3.10
2018-02-12T15:36:36.306Z,3.10
2018-02-12T15:39:03.839Z,3.00
2018-02-12T15:41:31.335Z,3.10
2018-02-12T15:43:59.811Z,3.20
2018-02-12T15:46:28.095Z,3.10
2018-02-12T15:48:56.423Z,3.10
2018-02-12T15:51:23.907Z,3.10
2018-02-12T15:53:51.579Z,3.00
2018-02-12T15:56:19.912Z,2.90
2018-02-12T15:58:47.422Z,2.90
2018-02-12T16:01:15.686Z,3.00
2018-02-12T16:03:43.954Z,3.00
2018-02-12T16:06:11.635Z,3.00
2018-02-12T16:08:39.886Z,3.00
2018-02-12T16:11:07.387Z,3.00
2018-02-12T16:13:34.878Z,3.10
2018-02-12T16:16:02.388Z,3.10
2018-02-12T16:18:30.646Z,3.10
2018-02-12T16:20:58.145Z,3.10
2018-02-12T16:23:25.643Z,3.00
2018-02-12T16:25:53.242Z,3.00
2018-02-12T16:28:21.722Z,3.00
2018-02-12T16:30:49.979Z,3.10
2018-02-12T16:33:17.475Z,3.10
2018-02-12T16:35:44.963Z,3.10
2018-02-12T16:38:12.462Z,3.00
2018-02-12T16:40:40.734Z,3.00
2018-02-12T16:43:08.231Z,3.00
2018-02-12T16:45:35.714Z,3.00
2018-02-12T16:48:03.219Z,3.00
2018-02-12T16:50:31.482Z,3.00
2018-02-12T16:52:58.966Z,3.00
2018-02-12T16:55:26.463Z,3.00
2018-02-12T16:57:54.072Z,3.10
2018-02-12T17:00:22.342Z,2.90
2018-02-12T17:02:50.725Z,2.80
2018-02-12T17:05:18.978Z,2.90
2018-02-12T17:07:46.463Z,2.90
2018-02-12T17:10:14.720Z,3.00
2018-02-12T17:12:42.231Z,2.90
2018-02-12T17:15:09.719Z,2.90
2018-02-12T17:17:37.208Z,3.00
2018-02-12T17:20:05.459Z,3.10
2018-02-12T17:22:32.954Z,3.10
2018-02-12T17:25:00.485Z,3.20
2018-02-12T17:27:27.978Z,3.20
2018-02-12T17:29:55.474Z,3.20
2018-02-12T17:32:22.962Z,3.20
2018-02-12T17:34:50.488Z,3.20
2018-02-12T17:37:17.979Z,3.20
2018-02-12T17:39:45.467Z,3.20
2018-02-12T17:42:12.963Z,3.20
2018-02-12T17:44:40.671Z,3.20
2018-02-12T17:47:10.097Z,3.30
2018-02-12T17:49:38.640Z,3.30
2018-02-12T17:52:06.325Z,3.30
2018-02-12T17:54:34.582Z,3.40
2018-02-12T17:57:02.081Z,3.40
2018-02-12T17:59:29.710Z,3.40
2018-02-12T18:01:57.970Z,3.30
2018-02-12T18:04:25.488Z,3.30
2018-02-12T18:06:53.111Z,3.30
2018-02-12T18:09:21.382Z,3.30
2018-02-12T18:11:49.638Z,3.30
2018-02-12T18:14:17.318Z,3.20
2018-02-12T18:16:45.575Z,3.30
2018-02-12T18:19:13.071Z,3.30
2018-02-12T18:21:41.336Z,3.30
2018-02-12T18:24:09.595Z,3.20
2018-02-12T18:26:37.097Z,3.20
2018-02-12T18:29:04.624Z,3.20
2018-02-12T18:31:32.893Z,3.20
2018-02-12T18:34:01.169Z,3.30
2018-02-12T18:36:28.690Z,3.30
2018-02-12T18:38:56.418Z,3.30
2018-02-12T18:41:23.927Z,3.30
2018-02-12T18:43:51.426Z,3.40
2018-02-12T18:46:19.690Z,3.30
2018-02-12T18:48:47.963Z,3.30
2018-02-12T18:51:16.234Z,3.30
2018-02-12T18:53:43.732Z,3.30
2018-02-12T18:56:11.238Z,3.40
2018-02-12T18:58:38.939Z,3.30
2018-02-12T19:01:06.439Z,3.30
2018-02-12T19:03:33.931Z,3.30
2018-02-12T19:06:01.448Z,3.40
2018-02-12T19:08:28.962Z,3.30
2018-02-12T19:10:57.226Z,3.20
2018-02-12T19:13:24.716Z,3.10
2018-02-12T19:15:52.211Z,3.20
2018-02-12T19:18:19.722Z,3.20
2018-02-12T19:20:47.227Z,3.20
2018-02-12T19:23:14.718Z,3.20
2018-02-12T19:25:42.978Z,3.30
2018-02-12T19:28:10.471Z,3.20
2018-02-12T19:30:38.727Z,3.20
2018-02-12T19:33:06.214Z,3.20
2018-02-12T19:35:33.733Z,3.20
2018-02-12T19:38:01.414Z,3.20
2018-02-12T19:40:29.667Z,3.10
2018-02-12T19:42:57.161Z,3.00
2018-02-12T19:45:24.667Z,3.10
2018-02-12T19:47:52.175Z,3.10
2018-02-12T19:50:20.646Z,3.10
2018-02-12T19:52:49.127Z,3.10
2018-02-12T19:55:17.392Z,3.10
2018-02-12T19:57:45.071Z,3.10
2018-02-12T20:00:13.333Z,3.20
2018-02-12T20:02:41.602Z,3.20
2018-02-12T20:05:09.118Z,3.10
2018-02-12T20:07:36.627Z,3.20
2018-02-12T20:10:04.890Z,3.20
2018-02-12T20:12:32.393Z,3.10
2018-02-12T20:14:59.882Z,3.30
2018-02-12T20:17:27.370Z,3.30
2018-02-12T20:19:54.868Z,3.20
2018-02-12T20:22:22.392Z,3.20
2018-02-12T20:24:49.891Z,3.30
2018-02-12T20:27:17.400Z,3.30
2018-02-12T20:29:44.923Z,3.30
2018-02-12T20:32:12.424Z,3.20
2018-02-12T20:34:40.698Z,3.20
2018-02-12T20:37:08.220Z,3.20
2018-02-12T20:39:35.719Z,3.20
2018-02-12T20:42:03.219Z,3.20
2018-02-12T20:44:30.711Z,3.20
2018-02-12T20:46:58.206Z,3.20
2018-02-12T20:49:26.492Z,3.10
2018-02-12T20:51:54.022Z,3.10
2018-02-12T20:54:21.510Z,3.20
2018-02-12T20:56:48.998Z,3.20
2018-02-12T20:59:16.610Z,3.10
2018-02-12T21:01:44.890Z,3.10
2018-02-12T21:04:13.154Z,3.10
2018-02-12T21:06:40.653Z,3.10
2018-02-12T21:09:08.286Z,3.10
2018-02-12T21:11:36.550Z,3.10
2018-02-12T21:14:04.053Z,3.10
2018-02-12T21:16:31.546Z,3.10
2018-02-12T21:18:59.043Z,3.00
2018-02-12T21:21:27.315Z,2.90
2018-02-12T21:23:55.595Z,2.80
2018-02-12T21:26:23.861Z,2.80
2018-02-12T21:28:52.131Z,2.80
2018-02-12T21:31:20.399Z,2.80
2018-02-12T21:33:47.894Z,2.80
2018-02-12T21:36:15.391Z,2.70
2018-02-12T21:38:42.903Z,2.70
2018-02-12T21:41:11.378Z,2.90
2018-02-12T21:43:39.634Z,2.70
2018-02-12T21:46:07.132Z,2.70
2018-02-12T21:48:34.766Z,2.70
2018-02-12T21:51:03.036Z,2.40
2018-02-12T21:53:31.310Z,2.40
2018-02-12T21:55:58.798Z,2.40
2018-02-12T21:58:26.306Z,2.50
2018-02-12T22:00:53.803Z,2.50
2018-02-12T22:03:22.060Z,2.30
2018-02-12T22:05:49.558Z,2.30
2018-02-12T22:08:17.064Z,2.40
2018-02-12T22:10:44.559Z,2.30
2018-02-12T22:13:12.827Z,2.20
2018-02-12T22:15:41.320Z,2.30
2018-02-12T22:18:08.811Z,2.20
2018-02-12T22:20:36.427Z,2.20
2018-02-12T22:23:04.708Z,2.20
2018-02-12T22:25:32.963Z,2.30
2018-02-12T22:28:01.963Z,2.20
2018-02-12T22:30:30.231Z,2.30
2018-02-12T22:32:57.727Z,2.20
2018-02-12T22:35:25.220Z,2.20
2018-02-12T22:37:52.754Z,2.20
2018-02-12T22:40:20.246Z,2.20
2018-02-12T22:42:47.744Z,2.30
2018-02-12T22:45:16.006Z,2.30
2018-02-12T22:47:44.262Z,2.20
2018-02-12T22:50:11.767Z,2.20
2018-02-12T22:52:39.258Z,2.20
2018-02-12T22:55:06.760Z,2.10
2018-02-12T22:57:35.032Z,2.10
2018-02-12T23:00:03.307Z,2.10
2018-02-12T23:02:30.812Z,2.10
2018-02-12T23:04:58.309Z,2.00
2018-02-12T23:07:25.802Z,2.10
2018-02-12T23:09:53.298Z,2.00
2018-02-12T23:12:20.795Z,1.90
2018-02-12T23:14:48.282Z,1.90
2018-02-12T23:17:15.778Z,2.00
2018-02-12T23:19:43.289Z,2.00
2018-02-12T23:22:11.542Z,2.10
2018-02-12T23:24:39.039Z,2.10
2018-02-12T23:27:06.575Z,2.10
2018-02-12T23:29:34.837Z,2.10
2018-02-12T23:32:02.335Z,2.10
2018-02-12T23:34:29.905Z,2.10
2018-02-12T23:36:57.445Z,2.10
2018-02-12T23:39:24.990Z,2.10
2018-02-12T23:41:53.367Z,2.10
2018-02-12T23:44:21.619Z,2.10
2018-02-12T23:46:49.130Z,2.10
2018-02-12T23:49:16.631Z,2.10
2018-02-12T23:51:44.129Z,2.10
2018-02-12T23:54:24.187Z,2.20
2018-02-12T23:56:51.695Z,2.20
2018-02-12T23:59:19.198Z,2.20
